Date,TemperatureHighF,TemperatureAvgF,TemperatureLowF,DewpointHighF,DewpointAvgF,DewpointLowF,HumidityHigh,HumidityAvg,HumidityLow,PressureMaxIn,PressureMinIn,WindSpeedMaxMPH,WindSpeedAvgMPH,GustSpeedMaxMPH,PrecipitationSumIn
2013-1-1,50.4,39.7,31.9,38.0,33.4,29.0,93,79,57,30.35,30.27,6,1,11,0.00
2013-1-2,53.5,38.3,27.5,38.0,32.5,26.0,96,81,56,30.32,30.20,5,1,8,0.00
2013-1-3,53.3,39.0,28.2,41.0,34.2,27.0,95,84,62,30.34,30.23,4,0,7,0.01
2013-1-4,54.2,41.1,30.7,40.0,34.9,29.0,96,80,52,30.35,30.25,4,1,8,0.00
2013-1-5,53.1,43.1,32.9,45.0,39.4,32.0,96,87,72,30.33,30.14,4,0,8,0.22
2013-1-6,46.8,42.8,34.9,45.0,41.5,34.0,97,95,90,30.26,30.12,5,0,6,0.15
2013-1-7,57.2,42.0,32.7,46.0,39.0,32.0,98,90,63,30.33,30.22,4,0,6,0.01
2013-1-8,59.4,45.1,35.2,46.0,40.4,34.0,98,85,57,30.30,30.20,5,0,8,0.01
2013-1-9,51.9,43.4,37.0,48.0,40.0,35.0,98,88,70,30.21,30.04,11,2,19,0.01
2013-1-10,50.4,41.8,34.7,36.0,33.4,30.0,90,73,47,30.24,30.12,7,1,12,0.00
2013-1-11,50.2,40.3,29.7,39.0,33.3,27.0,93,77,54,30.32,30.18,5,1,10,0.11
2013-1-12,49.3,38.8,29.9,34.0,28.6,23.0,95,71,38,30.32,30.20,4,0,8,0.00
2013-1-13,48.5,36.4,25.1,27.0,22.1,14.0,89,60,31,30.34,30.24,5,0,8,0.01
2013-1-14,48.8,39.5,31.0,25.0,18.4,12.0,77,44,31,30.48,30.30,6,1,11,0.00
2013-1-15,50.7,37.3,27.1,31.0,26.8,24.0,88,69,37,30.55,30.46,5,1,8,0.00
2013-1-16,53.2,39.5,28.6,35.0,31.0,26.0,94,74,46,30.51,30.34,6,1,9,0.00
2013-1-17,58.0,42.3,29.3,37.0,32.6,28.0,94,72,42,30.34,30.22,8,1,10,0.00
2013-1-18,62.3,43.8,30.2,39.0,32.3,28.0,94,69,32,30.30,30.20,5,1,7,0.01
2013-1-19,59.9,43.1,28.8,41.0,34.3,26.0,91,74,45,30.32,30.23,6,1,8,0.00
2013-1-20,61.1,43.1,29.2,38.0,32.8,27.0,94,72,30,30.31,30.20,6,1,8,0.00
2013-1-21,58.6,43.2,29.1,42.0,35.5,27.0,93,76,50,30.25,30.16,6,1,8,0.00
2013-1-22,62.2,45.3,31.8,44.0,38.0,30.0,94,78,49,30.19,30.08,4,0,8,0.01
2013-1-23,52.3,47.7,43.6,49.0,44.9,41.0,95,90,79,30.16,30.02,6,0,8,0.08
2013-1-24,53.7,50.7,48.1,51.0,49.2,47.0,97,94,88,30.25,30.13,9,1,9,0.41
2013-1-25,65.6,54.9,49.5,58.0,52.5,48.0,98,92,75,30.25,30.09,4,0,8,0.05
2013-1-26,57.2,49.9,45.5,51.0,44.8,40.0,98,84,55,30.12,30.04,9,2,14,0.01
2013-1-27,55.7,45.6,36.4,40.0,36.8,27.0,95,74,35,30.22,30.12,8,1,12,0.00
2013-1-28,57.8,45.9,36.8,42.0,38.1,34.0,91,76,46,30.34,30.22,10,2,10,0.00
2013-1-29,59.3,46.5,36.9,44.0,40.6,36.0,96,81,55,30.41,30.32,5,1,8,0.00
2013-1-30,64.5,54.2,40.7,42.0,38.3,34.0,89,57,36,30.40,30.31,6,2,10,0.00
2013-1-31,62.5,47.5,34.8,47.0,40.0,33.0,93,77,54,30.35,30.24,4,0,9,0.00
2013-2-1,63.4,48.8,35.7,48.0,42.2,34.0,96,80,56,30.27,30.18,4,1,8,0.00
2013-2-2,63.2,49.2,40.1,51.0,44.3,39.0,95,84,62,30.34,30.26,4,0,6,0.00
2013-2-3,62.3,49.9,41.1,47.0,43.9,39.0,96,81,56,30.31,30.18,5,1,8,0.00
2013-2-4,66.5,47.9,35.5,51.0,42.6,34.0,96,83,55,30.24,30.11,4,0,7,0.00
2013-2-5,54.3,49.2,45.6,47.0,44.5,42.0,95,84,70,30.19,30.12,8,2,13,0.00
2013-2-6,61.2,47.2,37.0,44.0,40.7,36.0,97,80,48,30.25,30.16,8,1,11,0.00
2013-2-7,54.8,44.1,34.9,45.0,38.4,33.0,95,82,51,30.23,30.05,11,2,14,0.07
2013-2-8,52.4,42.7,34.3,40.0,38.0,32.0,96,84,58,30.07,30.00,8,1,13,0.01
2013-2-9,58.7,43.5,30.4,33.0,29.8,25.0,93,63,29,30.16,30.04,4,0,9,0.00
2013-2-10,60.7,43.4,29.3,38.0,32.4,27.0,90,68,39,30.18,30.07,6,1,8,0.00
2013-2-11,61.0,45.7,31.6,34.0,30.8,28.0,91,61,29,30.29,30.13,4,0,7,0.00
2013-2-12,60.6,45.2,31.5,40.0,33.7,28.0,89,67,40,30.42,30.29,4,0,7,0.00
2013-2-13,67.1,48.1,33.0,44.0,37.1,31.0,93,69,33,30.40,30.27,5,0,5,0.00
2013-2-14,66.7,51.6,36.3,44.0,39.4,34.0,92,67,40,30.31,30.22,4,1,10,0.00
2013-2-15,68.1,52.3,37.6,48.0,41.6,35.0,90,69,44,30.33,30.27,6,1,11,0.00
2013-2-16,66.9,50.8,37.7,48.0,41.5,35.0,91,73,44,30.30,30.10,5,1,9,0.00
2013-2-17,67.0,50.6,39.9,47.0,41.5,37.0,96,74,39,30.12,30.01,5,0,7,0.00
2013-2-18,51.0,45.1,37.0,43.0,38.8,34.0,92,79,65,30.09,30.02,11,2,16,0.00
2013-2-19,49.7,43.3,37.4,42.0,37.7,33.0,93,81,63,30.03,29.80,12,2,19,0.44
2013-2-20,58.2,44.2,30.9,42.0,35.6,29.0,95,75,41,30.12,29.90,10,1,13,0.01
2013-2-21,60.7,46.6,35.9,40.0,35.6,30.0,96,70,31,30.23,30.10,8,1,11,0.00
2013-2-22,63.1,47.4,33.0,44.0,36.7,31.0,93,70,36,30.31,30.23,10,1,14,0.00
2013-2-23,60.8,50.7,43.6,45.0,37.9,28.0,93,66,30,30.30,30.20,10,2,13,0.00
2013-2-24,61.2,48.7,38.1,33.0,27.1,22.0,72,46,23,30.31,30.22,9,2,14,0.00
2013-2-25,63.7,47.9,33.0,45.0,36.2,28.0,83,66,43,30.34,30.22,8,1,11,0.00
2013-2-26,68.0,50.7,33.8,36.0,29.4,20.0,90,52,18,30.27,30.18,7,1,14,0.00
2013-2-27,71.6,51.2,33.7,41.0,34.0,28.0,85,57,21,30.42,30.27,5,1,8,0.00
2013-2-28,69.0,53.6,40.5,52.0,45.2,37.0,89,75,50,30.50,30.41,8,1,14,0.00
2013-3-1,71.3,56.4,41.4,50.0,46.0,40.0,95,71,45,30.48,30.29,7,1,9,0.00
2013-3-2,73.3,58.1,45.1,55.0,47.5,42.0,90,70,40,30.30,30.10,9,1,11,0.00
2013-3-3,64.4,55.0,48.2,50.0,46.7,44.0,88,75,48,30.15,30.07,10,3,16,0.00
2013-3-4,61.7,50.2,43.6,49.0,44.1,40.0,89,80,62,30.20,30.09,9,2,15,0.00
2013-3-5,62.2,50.6,40.3,43.0,40.1,38.0,94,70,44,30.12,29.89,13,3,21,0.01
2013-3-6,55.3,50.0,41.1,45.0,40.9,37.0,89,72,53,30.12,29.88,11,3,22,0.05
2013-3-7,57.8,46.7,36.6,46.0,39.1,34.0,93,77,46,30.05,29.90,6,1,10,0.08
2013-3-8,60.6,50.0,42.2,46.0,42.9,37.0,96,78,43,30.11,29.88,12,2,15,0.02
2013-3-9,69.5,53.1,41.1,43.0,40.1,29.0,92,66,22,30.36,30.11,8,2,14,0.00
2013-3-10,69.1,52.3,35.7,41.0,36.3,30.0,90,61,23,30.40,30.30,5,1,9,0.00
2013-3-11,75.2,55.3,37.9,45.0,39.9,34.0,88,60,30,30.31,30.15,6,1,10,0.00
2013-3-12,75.8,59.1,41.4,51.0,45.0,38.0,88,63,37,30.20,30.10,7,1,9,0.00
2013-3-13,77.1,60.4,44.3,55.0,48.9,42.0,92,68,44,30.21,30.10,7,1,10,0.00
2013-3-14,75.7,60.1,47.8,56.0,49.1,43.0,91,69,39,30.20,30.13,10,1,12,0.00
2013-3-15,72.8,56.8,43.6,52.0,45.5,40.0,89,68,44,30.17,30.08,7,1,10,0.00
2013-3-16,73.7,56.4,46.5,53.0,46.9,40.0,97,74,33,30.15,30.07,8,1,16,0.00
2013-3-17,72.2,54.9,40.6,46.0,42.4,38.0,92,66,29,30.19,30.08,10,1,15,0.00
2013-3-18,68.9,53.8,39.6,48.0,42.4,37.0,92,68,43,30.17,30.07,6,1,12,0.00
2013-3-19,72.3,55.9,45.0,48.0,43.8,39.0,90,67,36,30.19,30.11,10,1,14,0.08
2013-3-20,64.9,55.9,50.3,55.0,50.8,47.0,96,84,54,30.18,30.12,13,2,15,0.03
2013-3-21,66.6,54.4,45.8,49.0,43.0,40.0,88,68,38,30.17,30.05,8,2,11,0.00
2013-3-22,69.4,54.5,40.4,41.0,25.0,9.0,94,42,10,30.16,30.07,7,1,11,0.00
2013-3-23,71.0,54.8,38.3,38.0,29.4,23.0,67,42,20,30.20,30.08,7,2,11,0.00
2013-3-24,75.3,54.6,38.9,45.0,39.7,34.0,83,60,33,30.14,30.00,9,1,11,0.00
2013-3-25,62.7,51.0,42.2,47.0,43.0,40.0,92,76,51,30.07,29.98,10,2,15,0.00
2013-3-26,70.1,55.5,46.3,48.0,44.9,43.0,89,70,43,30.06,29.97,8,2,11,0.00
2013-3-27,67.2,56.0,46.3,52.0,48.0,42.0,89,75,55,30.06,30.00,16,3,18,0.00
2013-3-28,73.6,61.2,53.8,54.0,51.9,50.0,91,73,47,30.12,30.05,4,1,8,0.00
2013-3-29,77.1,62.9,49.5,54.0,50.6,47.0,93,67,41,30.14,30.04,8,1,10,0.00
2013-3-30,73.5,61.3,55.5,55.0,51.9,47.0,91,73,43,30.10,30.00,7,2,13,0.08
2013-3-31,68.5,59.5,50.6,54.0,50.5,48.0,92,74,48,30.11,30.03,10,2,14,0.06
2013-4-1,67.7,58.1,50.8,55.0,51.0,47.0,96,79,54,30.20,30.10,9,2,13,0.03
2013-4-2,72.0,55.8,44.2,54.0,48.6,43.0,94,78,51,30.23,30.12,7,1,12,0.00
2013-4-3,78.2,59.1,47.0,53.0,49.0,45.0,96,73,41,30.19,30.02,8,1,13,0.00
2013-4-4,68.3,58.5,51.1,56.0,52.4,48.0,93,80,62,30.16,30.03,8,3,14,0.16
2013-4-5,64.3,57.6,52.5,54.0,50.3,49.0,91,78,59,30.23,30.16,11,3,14,0.01
2013-4-6,66.1,57.7,52.8,54.0,50.8,49.0,87,78,63,30.24,30.17,10,3,13,0.00
2013-4-7,64.4,55.3,50.0,54.0,49.2,45.0,94,80,63,30.21,29.88,12,3,21,0.14
2013-4-8,69.1,57.1,45.5,49.0,35.9,24.0,91,51,20,30.06,29.86,13,4,25,0.00
2013-4-9,75.7,63.1,50.1,41.0,31.5,25.0,71,32,15,30.13,30.07,9,2,14,0.00
2013-4-10,85.7,66.0,49.1,52.0,44.8,35.0,79,49,26,30.22,30.07,12,2,16,0.00
2013-4-11,72.4,58.9,49.0,50.0,48.0,45.0,91,70,42,30.09,29.89,13,2,15,0.00
2013-4-12,78.7,58.3,42.8,49.0,44.8,40.0,92,66,30,29.97,29.86,9,2,15,0.00
2013-4-13,68.5,56.6,46.6,50.0,45.3,42.0,89,68,47,29.95,29.87,9,2,14,0.00
2013-4-14,67.9,53.5,42.7,46.0,42.4,36.0,93,69,32,29.98,29.90,14,3,17,0.00
2013-4-15,59.1,51.1,45.5,49.0,40.8,35.0,94,70,45,30.00,29.89,13,4,24,0.02
2013-4-16,68.5,53.9,38.4,39.0,30.0,17.0,87,48,14,30.20,30.00,9,1,14,0.00
2013-4-17,70.0,59.3,50.0,34.0,26.5,20.0,54,30,16,30.31,30.20,7,1,14,0.00
2013-4-18,77.9,59.7,40.5,41.0,34.6,30.0,72,44,19,30.32,30.22,6,1,14,0.00
2013-4-19,83.7,64.0,45.1,49.0,43.2,39.0,80,51,23,30.28,30.10,7,1,14,0.00
2013-4-20,82.6,65.3,49.2,49.0,44.2,37.0,87,52,20,30.15,30.01,9,2,13,0.00
2013-4-21,87.7,68.3,47.6,47.0,42.0,32.0,80,46,14,30.08,29.96,7,1,13,0.00
2013-4-22,90.2,71.5,52.4,47.0,42.0,29.0,76,41,12,30.01,29.87,6,1,11,0.00
2013-4-23,85.2,68.7,54.1,47.0,32.8,23.0,72,31,12,29.98,29.88,7,1,13,0.00
2013-4-24,75.7,59.3,45.5,49.0,45.1,38.0,87,63,30,29.99,29.86,13,3,18,0.00
2013-4-25,68.7,57.9,51.2,52.0,49.1,47.0,92,74,54,30.18,29.98,14,5,17,0.00
2013-4-26,77.8,60.0,50.2,54.0,48.9,46.0,86,69,40,30.26,30.18,8,2,12,0.00
2013-4-27,85.5,62.5,48.2,55.0,48.5,46.0,91,65,31,30.27,30.11,8,2,11,0.00
2013-4-28,92.7,67.8,47.9,57.0,50.2,45.0,91,59,24,30.11,29.91,10,1,12,0.00
2013-4-29,90.7,73.5,56.1,52.0,48.9,42.0,81,47,23,29.93,29.79,10,2,13,0.00
2013-4-30,86.4,69.6,53.2,52.0,36.7,12.0,87,42,8,29.89,29.82,6,1,12,0.00
2013-5-1,85.1,73.2,60.8,37.0,25.4,12.0,35,17,10,30.12,29.89,5,1,9,0.00
2013-5-2,93.4,73.7,53.2,41.0,32.1,19.0,58,27,10,30.20,30.10,9,1,12,0.00
2013-5-3,91.4,72.7,52.9,42.0,36.2,25.0,64,31,10,30.12,29.83,8,1,12,0.00
2013-5-4,90.6,71.5,54.4,47.0,39.6,31.0,65,36,12,29.83,29.57,8,2,15,0.00
2013-5-5,73.4,61.6,54.1,50.0,47.4,45.0,73,61,42,29.84,29.62,13,3,15,0.00
2013-5-6,69.4,62.1,56.8,58.0,50.9,47.0,87,68,47,30.00,29.85,6,1,11,0.05
2013-5-7,72.1,62.2,53.3,53.0,50.3,46.0,90,67,43,30.09,30.00,11,2,14,0.00
2013-5-8,68.8,58.4,52.2,52.0,50.0,49.0,90,75,51,30.20,30.08,12,3,17,0.00
2013-5-9,70.1,58.4,52.7,53.0,49.9,49.0,87,75,54,30.23,30.12,13,3,17,0.00
2013-5-10,78.0,60.8,51.8,57.0,51.7,48.0,90,74,46,30.24,30.13,10,2,13,0.00
2013-5-11,92.6,69.7,51.2,57.0,51.2,46.0,92,58,23,30.19,30.06,8,2,12,0.00
2013-5-12,85.3,69.3,53.9,57.0,50.2,46.0,83,54,25,30.17,30.06,13,3,16,0.00
2013-5-13,85.5,66.4,52.1,56.0,50.9,44.0,84,60,34,30.13,29.99,13,2,14,0.00
2013-5-14,77.7,63.4,52.6,54.0,49.4,45.0,88,63,36,30.06,29.96,9,3,15,0.00
2013-5-15,68.8,58.0,50.4,50.0,45.7,41.0,86,66,37,30.10,30.05,12,3,16,0.00
2013-5-16,69.3,58.6,53.3,56.0,51.1,46.0,92,77,52,30.09,30.02,13,3,16,0.03
2013-5-17,68.5,58.2,51.7,48.0,46.0,43.0,84,66,42,30.14,30.02,12,3,16,0.00
2013-5-18,75.4,60.8,49.5,51.0,48.2,45.0,87,66,36,30.18,30.12,11,2,14,0.00
2013-5-19,85.9,67.3,50.1,51.0,45.8,35.0,90,53,17,30.17,30.00,10,1,17,0.00
2013-5-20,91.1,70.4,51.3,49.0,41.0,31.0,76,42,12,30.04,29.95,13,2,16,0.00
2013-5-21,69.7,59.0,50.8,50.0,46.4,41.0,83,65,36,30.02,29.95,14,3,18,0.00
2013-5-22,67.5,54.9,43.6,44.0,36.7,23.0,87,56,21,30.06,29.96,11,3,16,0.00
2013-5-23,70.1,56.4,48.2,46.0,43.0,39.0,83,63,36,30.05,29.97,11,3,13,0.00
2013-5-24,72.6,56.9,44.5,46.0,42.9,36.0,90,64,27,30.05,29.99,14,3,18,0.00
2013-5-25,67.9,56.4,48.9,49.0,45.1,42.0,86,68,41,30.11,30.02,10,3,16,0.00
2013-5-26,70.1,59.7,52.2,53.0,50.5,49.0,92,73,49,30.19,30.10,16,4,20,0.00
2013-5-27,64.1,58.2,52.8,55.0,51.9,48.0,89,79,67,30.18,30.04,9,3,13,0.01
2013-5-28,70.9,62.1,55.9,57.0,54.0,50.0,92,76,50,30.05,29.95,10,3,13,0.00
2013-5-29,70.7,61.2,54.0,55.0,51.2,48.0,84,71,51,30.02,29.95,11,4,16,0.00
2013-5-30,80.2,61.9,47.7,49.0,46.4,43.0,93,62,28,30.03,29.98,11,2,13,0.00
2013-5-31,90.1,69.6,49.9,48.0,45.6,41.0,84,49,18,30.06,29.94,10,2,15,0.00
2013-6-1,94.5,75.7,55.1,52.0,47.8,44.0,73,42,19,29.96,29.79,10,2,12,0.00
2013-6-2,87.4,69.9,56.4,55.0,51.5,49.0,79,55,31,29.81,29.68,8,2,14,0.00
2013-6-3,81.2,65.4,53.6,56.0,51.3,48.0,84,63,39,29.88,29.75,11,3,17,0.00
2013-6-4,74.8,61.4,53.0,56.0,52.1,50.0,90,74,49,29.99,29.88,15,5,18,0.00
2013-6-5,77.5,61.9,53.6,55.0,51.7,50.0,88,72,44,30.04,29.93,10,5,15,0.00
2013-6-6,86.5,65.1,52.7,58.0,53.2,49.0,91,69,37,29.99,29.86,9,3,12,0.00
2013-6-7,100.8,74.2,53.6,63.0,55.8,51.0,91,59,26,29.91,29.74,8,1,13,0.00
2013-6-8,107.1,81.2,63.9,60.0,56.7,55.0,76,47,20,29.80,29.68,9,2,15,0.00
2013-6-9,76.3,65.1,58.5,58.0,55.2,53.0,85,71,53,29.91,29.79,17,6,23,0.00
2013-6-10,73.1,63.2,57.3,55.0,52.2,50.0,82,69,48,29.98,29.86,12,4,18,0.00
2013-6-11,80.6,64.6,54.5,57.0,53.5,51.0,87,69,42,30.01,29.93,9,2,13,0.00
2013-6-12,81.4,65.3,53.1,53.0,48.1,40.0,87,58,24,30.03,29.94,12,2,14,0.00
2013-6-13,81.6,65.0,49.2,49.0,46.5,40.0,89,57,26,30.13,30.03,9,2,13,0.00
2013-6-14,88.1,70.3,51.9,50.0,42.9,36.0,78,43,17,30.03,29.86,10,2,16,0.00
2013-6-15,79.1,62.8,51.9,54.0,49.8,45.0,88,65,39,30.04,29.86,12,2,14,0.00
2013-6-16,83.4,64.7,51.2,54.0,49.8,45.0,92,63,26,30.12,30.04,11,3,15,0.00
2013-6-17,76.0,63.2,53.6,56.0,52.6,50.0,89,70,47,30.13,30.07,10,3,16,0.00
2013-6-18,68.2,60.6,54.5,54.0,50.2,47.0,89,70,48,30.08,30.02,13,4,20,0.00
2013-6-19,75.1,62.0,51.9,50.0,48.2,45.0,88,64,36,30.09,30.03,9,3,16,0.00
2013-6-20,80.1,63.5,50.3,50.0,48.1,41.0,90,62,27,30.05,29.97,10,2,14,0.00
2013-6-21,84.8,66.1,50.3,51.0,47.6,35.0,90,57,18,30.02,29.95,11,2,16,0.00
2013-6-22,88.8,69.2,52.1,53.0,48.1,44.0,83,53,22,29.97,29.87,12,2,16,0.00
2013-6-23,70.7,62.6,56.4,60.0,57.0,53.0,92,82,70,29.93,29.85,10,3,14,0.00
2013-6-24,68.6,63.6,58.5,61.0,59.0,57.0,94,85,74,29.94,29.82,9,2,9,0.03
2013-6-25,79.0,69.7,62.6,64.0,61.0,57.0,89,75,59,30.02,29.93,11,3,15,0.00
2013-6-26,85.4,72.6,62.0,65.0,61.3,58.0,93,70,47,30.08,30.00,11,2,15,0.00
2013-6-27,93.6,75.3,60.1,62.0,58.6,54.0,92,61,27,30.11,30.03,9,2,12,0.00
2013-6-28,100.9,82.3,62.9,61.0,56.5,50.0,77,46,19,30.06,29.91,11,2,17,0.00
2013-6-29,103.0,84.2,64.7,58.0,54.9,50.0,71,41,17,29.94,29.81,9,2,13,0.00
2013-6-30,100.5,81.5,65.6,59.0,55.8,52.0,70,44,21,29.86,29.77,7,1,11,0.00
2013-7-1,100.7,81.8,63.6,61.0,55.9,51.0,77,46,20,29.85,29.82,6,1,11,0.00
2013-7-2,103.2,82.7,69.9,63.0,58.6,55.0,68,47,23,29.92,29.83,10,2,13,0.00
2013-7-3,100.3,80.3,63.1,62.0,57.9,54.0,82,51,26,29.92,29.77,8,2,14,0.00
2013-7-4,100.4,84.3,71.9,64.0,57.8,47.0,67,43,24,29.79,29.68,8,2,15,0.00
2013-7-5,76.9,66.0,56.6,56.0,52.1,46.0,84,63,37,29.81,29.73,15,5,19,0.00
2013-7-6,83.0,64.0,55.0,56.0,53.0,51.0,88,70,38,29.83,29.74,9,2,14,0.00
2013-7-7,89.7,67.9,53.1,56.0,52.6,45.0,90,63,21,29.89,29.79,8,2,11,0.00
2013-7-8,90.6,68.8,54.7,56.0,52.2,42.0,92,62,19,29.99,29.89,9,2,12,0.00
2013-7-9,100.7,78.1,57.9,57.0,51.5,41.0,88,48,14,30.05,29.93,9,1,12,0.00
2013-7-10,91.2,71.2,56.0,57.0,52.4,47.0,84,55,26,30.00,29.89,10,3,18,0.00
2013-7-11,81.5,64.5,54.4,56.0,53.0,51.0,92,69,39,29.97,29.89,11,4,15,0.00
2013-7-12,84.2,67.1,53.1,55.0,50.7,44.0,92,61,29,29.96,29.90,11,2,16,0.00
2013-7-13,92.2,71.6,54.3,55.0,49.3,43.0,90,52,21,29.98,29.91,9,2,16,0.00
2013-7-14,87.1,69.0,54.6,56.0,50.8,45.0,85,57,25,30.02,29.90,9,2,14,0.00
2013-7-15,78.1,62.0,54.4,55.0,52.7,51.0,90,74,45,29.95,29.85,11,4,16,0.00
2013-7-16,72.1,62.7,56.3,55.0,53.3,51.0,88,73,53,30.08,29.91,16,5,20,0.00
2013-7-17,82.8,66.8,57.6,58.0,54.6,53.0,84,68,37,30.14,30.05,13,2,13,0.00
2013-7-18,91.1,69.8,54.5,56.0,50.1,33.0,92,58,13,30.10,29.95,10,2,13,0.00
2013-7-19,93.0,70.7,54.6,58.0,53.7,50.0,91,60,24,29.98,29.83,8,2,14,0.00
2013-7-20,93.7,68.6,55.3,59.0,54.8,52.0,90,66,27,29.88,29.73,7,2,11,0.00
2013-7-21,92.0,71.5,56.2,57.0,54.1,52.0,87,59,27,29.88,29.77,8,2,13,0.00
2013-7-22,87.0,70.6,57.5,59.0,55.9,54.0,88,62,34,29.97,29.89,7,2,12,0.00
2013-7-23,87.9,73.0,65.2,58.0,54.7,47.0,73,55,32,30.02,29.96,9,2,13,0.00
2013-7-24,93.5,75.9,60.6,57.0,50.8,37.0,82,48,15,30.01,29.91,9,2,12,0.00
2013-7-25,87.8,73.2,61.9,57.0,52.3,48.0,75,51,28,30.04,29.95,12,3,13,0.00
2013-7-26,90.3,70.3,56.4,57.0,54.7,52.0,89,62,31,30.11,30.01,11,3,13,0.00
2013-7-27,87.4,68.9,56.6,59.0,55.7,53.0,92,67,36,30.05,29.87,10,3,13,0.00
2013-7-28,81.9,65.7,56.4,58.0,55.2,52.0,92,71,43,29.90,29.81,11,3,15,0.00
2013-7-29,80.1,63.5,53.7,56.0,53.2,50.0,90,71,42,30.04,29.87,16,4,19,0.00
2013-7-30,84.0,65.7,55.4,57.0,54.0,52.0,90,69,38,30.13,30.04,11,3,15,0.00
2013-7-31,81.9,64.8,54.6,56.0,52.8,51.0,92,69,35,30.11,30.04,9,4,15,0.00
2013-8-1,75.7,62.2,54.7,53.0,51.4,50.0,85,70,43,30.11,30.00,9,3,15,0.00
2013-8-2,85.1,65.6,52.4,55.0,52.0,50.0,93,66,32,30.02,29.92,10,2,13,0.00
2013-8-3,85.7,66.6,53.3,57.0,53.4,50.0,93,67,29,30.02,29.91,9,2,12,0.00
2013-8-4,81.8,63.4,54.5,57.0,53.8,52.0,92,74,39,30.05,29.96,9,3,15,0.00
2013-8-5,81.2,63.5,54.3,57.0,53.9,51.0,90,73,41,30.06,29.96,9,3,14,0.00
2013-8-6,75.3,62.2,54.6,56.0,54.0,52.0,92,76,50,30.08,30.01,14,4,18,0.00
2013-8-7,74.6,63.8,57.6,56.0,54.6,53.0,88,74,51,30.13,30.07,12,5,17,0.00
2013-8-8,78.3,63.5,57.1,58.0,55.3,53.0,90,76,48,30.07,29.96,13,3,18,0.00
2013-8-9,75.0,63.0,56.1,57.0,54.5,52.0,90,75,53,30.03,29.95,11,4,15,0.00
2013-8-10,79.4,64.5,56.7,59.0,55.8,54.0,91,75,44,30.09,30.02,11,4,17,0.00
2013-8-11,82.4,65.7,57.7,58.0,55.3,51.0,92,73,34,30.07,29.96,8,3,14,0.00
2013-8-12,85.5,68.1,54.2,58.0,52.5,48.0,94,63,29,30.02,29.96,11,2,14,0.00
2013-8-13,94.4,71.7,53.7,56.0,50.4,39.0,91,55,15,30.02,29.93,8,1,14,0.00
2013-8-14,88.6,69.6,55.2,59.0,53.6,48.0,88,62,25,30.01,29.93,10,1,13,0.00
2013-8-15,86.8,71.9,61.4,64.0,61.1,57.0,92,72,37,30.00,29.93,11,2,13,0.00
2013-8-16,89.0,72.4,61.2,65.0,58.5,49.0,95,67,34,30.01,29.96,10,3,16,0.00
2013-8-17,82.9,68.9,59.5,59.0,55.9,52.0,85,66,36,30.02,29.89,9,2,14,0.00
2013-8-18,99.9,76.1,56.8,61.0,56.9,52.0,93,58,22,29.92,29.79,5,1,8,0.00
2013-8-19,101.0,79.7,65.4,60.0,56.4,49.0,74,48,23,29.92,29.81,8,2,14,0.00
2013-8-20,89.1,72.4,60.7,60.0,56.6,53.0,85,60,33,29.90,29.81,12,3,15,0.00
2013-8-21,84.4,66.2,57.3,57.0,55.3,54.0,92,70,39,29.96,29.86,9,3,15,0.00
2013-8-22,77.2,64.3,57.0,57.0,54.7,53.0,91,73,48,30.00,29.91,13,4,17,0.00
2013-8-23,80.4,65.5,56.4,57.0,54.7,53.0,89,71,41,29.97,29.84,10,2,13,0.00
2013-8-24,81.5,67.1,55.4,59.0,55.9,53.0,91,70,43,29.94,29.88,10,3,14,0.00
2013-8-25,85.6,69.1,61.6,63.0,60.1,57.0,91,75,39,29.97,29.90,14,3,17,0.00
2013-8-26,81.8,68.1,60.5,59.0,56.5,54.0,87,69,41,30.04,29.93,8,2,13,0.00
2013-8-27,86.5,68.0,55.2,58.0,54.7,48.0,91,67,26,29.95,29.84,9,2,14,0.00
2013-8-28,85.5,69.5,58.0,63.0,58.7,55.0,94,72,37,29.98,29.89,11,3,15,0.00
2013-8-29,84.7,70.4,61.0,63.0,60.0,53.0,93,73,34,30.08,29.98,10,2,14,0.00
2013-8-30,93.8,74.0,58.6,62.0,58.1,52.0,95,64,26,30.08,29.93,12,2,13,0.00
2013-8-31,85.6,70.6,58.6,57.0,55.1,52.0,83,61,34,30.00,29.91,12,3,16,0.00
2013-9-1,85.1,70.0,60.4,61.0,57.2,54.0,87,67,38,29.97,29.89,13,3,15,0.00
2013-9-2,83.2,70.3,64.2,63.0,60.8,59.0,89,73,44,29.99,29.91,10,2,16,0.00
2013-9-3,77.8,68.1,59.3,60.0,55.5,49.0,89,67,37,30.03,29.97,11,3,17,0.00
2013-9-4,79.1,67.9,60.0,58.0,56.5,52.0,88,70,42,30.07,29.98,10,3,15,0.00
2013-9-5,79.7,67.3,60.3,58.0,55.8,51.0,87,70,39,30.05,29.98,9,2,14,0.00
2013-9-6,90.8,71.9,52.0,55.0,50.6,46.0,92,55,22,30.03,29.86,3,0,11,0.00
2013-9-7,98.6,76.9,57.0,52.0,47.9,43.0,74,41,17,29.91,29.81,7,1,11,0.00
2013-9-8,99.0,77.2,59.0,56.0,52.2,49.0,77,46,19,29.89,29.76,8,1,12,0.00
2013-9-9,98.7,77.5,60.4,54.0,50.9,44.0,74,44,18,29.84,29.71,10,1,15,0.00
2013-9-10,83.7,69.0,59.7,60.0,57.3,52.0,89,68,43,29.92,29.76,12,3,16,0.00
2013-9-11,75.7,65.6,58.6,59.0,57.0,55.0,87,75,54,30.02,29.92,11,3,16,0.00
2013-9-12,82.2,67.2,60.4,62.0,58.7,57.0,90,76,48,30.02,29.90,10,2,13,0.00
2013-9-13,83.9,65.9,58.3,60.0,56.8,55.0,92,75,43,29.95,29.79,8,2,11,0.00
2013-9-14,74.3,62.6,56.7,59.0,55.8,54.0,92,79,59,29.88,29.78,8,2,12,0.00
2013-9-15,79.4,65.0,56.1,58.0,55.8,53.0,90,74,45,29.91,29.83,10,3,15,0.00
2013-9-16,83.1,66.9,59.3,61.0,57.4,54.0,93,74,39,29.93,29.82,8,2,15,0.00
2013-9-17,73.7,64.2,58.2,56.0,54.4,53.0,86,72,48,29.92,29.86,10,3,20,0.00
2013-9-18,84.3,66.5,51.5,54.0,48.4,42.0,91,58,23,29.95,29.85,9,1,14,0.00
2013-9-19,93.2,70.2,49.8,48.0,44.3,39.0,81,46,15,29.90,29.77,6,1,12,0.00
2013-9-20,74.1,64.0,54.9,60.0,54.7,47.0,86,72,58,29.90,29.80,12,3,16,0.00
2013-9-21,68.6,62.6,56.5,59.0,56.1,53.0,94,80,59,29.94,29.85,7,2,14,0.40
2013-9-22,73.1,61.3,52.2,56.0,53.2,51.0,96,77,49,30.05,29.94,9,1,11,0.00
2013-9-23,84.8,65.9,51.3,60.0,54.9,50.0,94,71,34,30.07,29.96,8,1,12,0.00
2013-9-24,74.8,63.4,56.3,58.0,54.1,50.0,92,73,45,30.03,29.94,12,2,16,0.00
2013-9-25,68.7,60.3,52.7,50.0,47.2,43.0,81,64,43,29.98,29.86,9,3,15,0.00
2013-9-26,76.8,59.2,45.3,47.0,42.8,36.0,91,60,23,30.03,29.88,10,1,14,0.00
2013-9-27,78.1,61.7,46.2,45.0,39.2,31.0,81,49,19,30.15,30.03,7,0,10,0.00
2013-9-28,86.8,64.8,46.4,55.0,40.4,27.0,85,49,12,30.13,30.02,7,1,12,0.00
2013-9-29,76.8,64.4,53.0,59.0,55.7,51.0,92,75,50,30.15,30.07,8,2,13,0.00
2013-9-30,75.1,65.6,58.0,60.0,58.0,55.0,92,77,57,30.12,30.00,7,2,12,0.00
2013-10-1,74.6,62.5,54.0,56.0,49.8,47.0,89,65,39,30.05,29.95,8,2,11,0.00
2013-10-2,78.0,60.7,48.7,50.0,47.0,44.0,88,64,31,30.05,29.97,10,2,14,0.00
2013-10-3,73.5,61.4,46.3,47.0,36.1,25.0,87,48,17,30.11,29.98,6,1,13,0.00
2013-10-4,78.0,67.4,56.5,37.0,31.0,26.0,44,27,18,30.15,30.02,4,1,10,0.00
2013-10-5,83.2,64.4,45.8,41.0,34.5,28.0,67,38,15,30.25,30.15,2,0,9,0.00
2013-10-6,84.6,64.1,45.2,43.0,37.8,33.0,74,43,16,30.17,30.04,2,0,9,0.00
2013-10-7,85.2,65.6,49.8,43.0,37.2,27.0,73,41,14,30.04,29.90,6,1,13,0.00
2013-10-8,78.7,61.3,46.9,48.0,41.6,37.0,82,52,25,29.94,29.76,8,1,15,0.00
2013-10-9,69.7,56.7,47.4,49.0,44.9,42.0,90,68,39,29.80,29.67,7,1,12,0.00
2013-10-10,75.5,59.5,46.3,49.0,43.4,39.0,82,59,27,30.05,29.81,6,1,11,0.00
2013-10-11,73.6,57.3,45.4,51.0,46.4,42.0,90,70,42,30.12,30.01,5,1,11,0.00
2013-10-12,73.8,56.7,42.7,49.0,44.8,40.0,91,68,36,30.05,29.94,10,1,15,0.00
2013-10-13,75.7,58.3,45.0,50.0,43.8,39.0,94,64,27,30.11,29.97,8,1,12,0.00
2013-10-14,77.6,59.4,43.5,44.0,39.1,34.0,85,53,21,30.17,30.05,3,0,9,0.00
2013-10-15,78.6,60.7,43.7,40.0,35.7,33.0,76,45,20,30.10,30.00,5,0,8,0.00
2013-10-16,84.0,62.3,44.3,43.0,37.7,34.0,76,45,18,30.15,30.05,3,0,7,0.00
2013-10-17,82.8,62.3,45.0,40.0,37.2,34.0,80,45,18,30.13,30.00,6,1,9,0.00
2013-10-18,85.7,63.2,44.8,44.0,38.6,35.0,77,46,17,30.09,30.00,3,0,6,0.00
2013-10-19,83.8,63.2,45.2,44.0,41.2,39.0,81,50,21,30.12,30.02,5,0,6,0.00
2013-10-20,85.7,63.1,44.7,49.0,41.5,32.0,82,51,15,30.06,29.93,5,1,10,0.00
2013-10-21,83.7,61.2,45.6,51.0,45.3,41.0,91,61,23,30.04,29.93,3,0,6,0.00
2013-10-22,82.9,61.4,44.7,51.0,46.4,42.0,90,63,26,30.06,29.94,5,0,7,0.00
2013-10-23,81.7,58.4,45.1,53.0,47.6,42.0,94,71,32,30.01,29.91,4,1,8,0.00
2013-10-24,62.3,54.6,49.2,50.0,48.6,46.0,92,81,62,30.15,30.01,9,2,14,0.00
2013-10-25,78.7,58.8,46.0,52.0,48.4,44.0,95,72,32,30.22,30.11,5,1,7,0.00
2013-10-26,80.4,60.2,43.4,48.0,44.3,39.0,92,61,29,30.20,30.05,2,0,9,0.00
2013-10-27,61.8,53.0,44.5,50.0,45.1,38.0,93,75,62,30.07,29.74,14,4,20,0.00
2013-10-28,62.5,54.7,49.4,49.0,45.9,43.0,92,73,50,29.90,29.73,11,2,14,0.00
2013-10-29,62.6,55.0,46.6,48.0,46.1,42.0,85,73,52,30.10,29.90,6,1,9,0.00
2013-10-30,68.6,52.6,40.6,47.0,42.8,38.0,94,72,45,30.21,30.10,5,0,7,0.00
2013-10-31,74.3,55.2,41.1,45.0,41.2,38.0,90,63,32,30.24,30.11,4,0,9,0.00
2013-11-1,74.3,56.7,41.6,47.0,42.5,38.0,88,62,37,30.20,30.06,5,0,7,0.00
2013-11-2,74.2,55.8,41.5,52.0,44.1,38.0,88,68,38,30.08,29.95,6,1,10,0.00
2013-11-3,66.4,52.6,41.4,46.0,35.3,24.0,91,59,21,30.09,29.97,4,0,9,0.00
2013-11-4,69.5,54.0,36.8,37.0,30.2,24.0,87,47,19,30.12,29.97,7,0,12,0.00
2013-11-5,71.1,58.6,47.2,36.0,32.5,28.0,64,39,25,30.27,30.12,7,0,8,0.00
2013-11-6,69.2,55.6,41.9,41.0,37.0,34.0,77,53,31,30.31,30.22,4,0,6,0.00
2013-11-7,76.2,58.1,45.8,42.0,38.4,33.0,77,52,21,30.23,30.11,7,0,9,0.00
2013-11-8,77.2,57.3,42.7,49.0,42.9,36.0,85,62,32,30.14,30.00,4,0,10,0.00
2013-11-9,74.9,55.9,42.2,49.0,44.5,40.0,92,69,33,30.08,30.01,3,0,5,0.00
2013-11-10,71.3,54.3,41.4,49.0,44.3,38.0,90,72,39,30.16,30.08,5,0,9,0.00
2013-11-11,67.8,54.7,43.9,50.0,46.3,42.0,94,75,47,30.22,30.12,2,0,6,0.00
2013-11-12,76.1,59.8,48.1,50.0,46.0,41.0,81,63,34,30.30,30.20,6,0,9,0.00
2013-11-13,79.1,57.5,42.7,49.0,43.1,39.0,87,63,29,30.30,30.14,4,0,9,0.00
2013-11-14,71.2,53.5,44.1,53.0,47.3,41.0,95,81,49,30.16,29.92,7,1,11,0.00
2013-11-15,66.4,52.3,41.4,48.0,41.8,37.0,96,71,35,29.92,29.77,7,1,10,0.00
2013-11-16,63.6,50.8,39.8,50.0,43.0,36.0,93,76,46,29.99,29.83,7,1,11,0.00
2013-11-17,65.3,52.2,42.2,49.0,44.9,40.0,95,78,50,30.14,29.98,6,0,8,0.00
2013-11-18,59.7,49.3,39.9,47.0,43.4,38.0,93,81,58,30.20,30.13,10,1,13,0.00
2013-11-19,63.4,54.0,46.4,55.0,49.3,44.0,96,84,63,30.17,30.00,6,1,11,0.23
2013-11-20,60.9,55.3,50.8,58.0,54.1,50.0,97,96,87,30.00,29.89,5,1,9,0.72
2013-11-21,59.8,53.1,45.7,51.0,36.5,22.0,97,60,29,30.04,29.94,12,2,14,0.15
2013-11-22,67.4,55.0,45.6,38.0,24.0,14.0,69,34,17,30.09,29.95,9,2,16,0.00
2013-11-23,62.5,48.9,37.6,41.0,37.1,34.0,88,66,36,30.16,30.02,3,0,5,0.00
2013-11-24,65.0,47.8,35.6,44.0,39.0,34.0,93,74,39,30.32,30.16,3,0,6,0.00
2013-11-25,62.0,47.4,35.8,45.0,40.1,34.0,95,78,50,30.39,30.31,3,0,7,0.00
2013-11-26,59.6,48.6,39.4,45.0,41.5,38.0,95,78,53,30.33,30.10,7,1,9,0.00
2013-11-27,60.3,49.6,40.2,47.0,44.1,39.0,95,82,62,30.09,29.91,5,0,8,0.00
2013-11-28,69.3,51.4,40.4,46.0,42.1,39.0,95,74,39,30.14,29.93,4,0,6,0.00
2013-11-29,69.7,50.8,37.8,45.0,40.8,36.0,94,72,40,30.28,30.14,3,0,5,0.00
2013-11-30,67.4,49.9,38.0,46.0,41.0,36.0,93,74,44,30.32,30.24,4,0,7,0.00
2013-12-1,70.2,51.5,38.1,46.0,40.9,36.0,94,71,38,30.40,30.27,4,0,8,0.00
2013-12-2,67.1,50.7,38.0,51.0,44.3,36.0,94,80,52,30.29,30.00,6,1,10,0.00
2013-12-3,54.4,48.3,36.4,53.0,37.6,25.0,94,68,45,30.00,29.89,9,3,23,0.00
2013-12-4,49.9,38.7,28.4,27.0,19.5,15.0,73,50,26,30.15,30.00,7,1,9,0.00
2013-12-5,51.0,35.5,24.0,22.0,17.6,14.0,80,53,25,30.24,30.15,4,0,9,0.00
2013-12-6,51.5,39.6,25.9,45.0,28.9,18.0,93,68,40,30.25,29.97,5,1,15,0.33
2013-12-7,47.6,41.1,31.2,44.0,31.2,24.0,94,71,41,30.31,29.98,14,3,22,0.08
2013-12-8,43.0,34.3,27.9,28.0,23.8,21.0,91,67,42,30.40,30.29,8,1,11,0.00
2013-12-9,45.1,36.0,28.4,26.0,21.3,16.0,86,57,40,30.49,30.38,7,2,10,0.00
2013-12-10,49.6,36.2,24.9,31.0,26.4,22.0,94,70,41,30.48,30.28,6,1,11,0.00
2013-12-11,51.3,38.8,27.8,32.0,29.3,25.0,92,71,46,30.32,30.25,8,2,12,0.00
2013-12-12,59.1,40.9,27.5,35.0,30.4,25.0,90,70,38,30.34,30.23,4,0,8,0.00
2013-12-13,59.7,42.3,29.1,35.0,29.5,27.0,91,65,31,30.40,30.29,6,1,8,0.00
2013-12-14,56.8,42.0,30.2,38.0,32.1,27.0,89,70,44,30.46,30.38,9,1,10,0.00
2013-12-15,60.9,43.7,30.6,38.0,33.6,28.0,92,71,40,30.44,30.31,7,1,13,0.00
2013-12-16,63.8,48.1,36.6,39.0,35.7,32.0,88,66,36,30.32,30.19,10,1,11,0.00
2013-12-17,62.5,47.5,36.0,41.0,37.0,32.0,88,70,41,30.25,30.10,6,0,7,0.00
2013-12-18,64.6,50.1,40.5,46.0,41.4,38.0,89,74,42,30.11,29.82,7,1,12,0.00
2013-12-19,59.9,48.6,37.1,45.0,30.8,16.0,93,56,29,29.99,29.77,12,2,15,0.00
2013-12-20,62.2,49.0,39.4,23.0,14.1,8.0,52,27,12,30.07,29.98,4,1,8,0.00
2013-12-21,65.6,46.3,33.4,42.0,31.6,23.0,78,58,34,30.15,30.03,3,0,5,0.00
2013-12-22,63.8,47.2,34.2,40.0,34.4,31.0,89,65,34,30.35,30.15,8,1,9,0.00
2013-12-23,61.2,46.3,34.4,39.0,35.7,31.0,89,69,43,30.45,30.34,6,1,10,0.00
2013-12-24,68.1,49.5,36.2,42.0,36.5,33.0,90,65,35,30.41,30.27,6,1,12,0.00
2013-12-25,60.7,46.4,34.9,41.0,36.6,31.0,87,71,48,30.36,30.26,6,1,11,0.00
2013-12-26,64.0,46.0,33.5,42.0,36.4,31.0,92,72,40,30.32,30.23,8,1,11,0.00
2013-12-27,60.8,44.4,32.9,43.0,36.7,30.0,90,76,49,30.31,30.18,5,0,7,0.00
2013-12-28,67.1,46.9,30.8,38.0,30.1,25.0,91,60,21,30.21,30.08,8,1,11,0.00
2013-12-29,63.4,53.2,37.8,34.0,27.0,18.0,75,39,23,30.23,30.15,9,2,11,0.00
2013-12-30,65.8,45.3,31.9,38.0,33.0,28.0,85,65,32,30.32,30.24,4,0,6,0.00
2013-12-31,62.5,44.9,33.7,39.0,32.8,30.0,87,66,35,30.33,30.20,5,0,6,0.00
2014-1-1,65.8,45.9,30.8,34.0,30.1,27.0,87,59,27,30.28,30.18,4,0,7,0.00
2014-1-2,63.8,47.7,34.6,37.0,33.5,29.0,83,61,35,30.24,30.12,6,1,10,0.00